createdAt,value
2018-06-04T00:01:31.148Z,89.55
2018-06-04T00:04:00.291Z,89.07
2018-06-04T00:06:29.138Z,89.56
2018-06-04T00:08:58.031Z,89.34
2018-06-04T00:11:27.230Z,89.66
2018-06-04T00:13:56.088Z,89.79
2018-06-04T00:16:25.773Z,89.98
2018-06-04T00:18:55.078Z,89.72
2018-06-04T00:21:24.168Z,89.77
2018-06-04T00:23:53.024Z,90.00
2018-06-04T00:26:22.677Z,90.05
2018-06-04T00:28:51.983Z,90.35
2018-06-04T00:31:21.651Z,90.38
2018-06-04T00:33:50.507Z,90.38
2018-06-04T00:36:19.971Z,90.72
2018-06-04T00:38:49.483Z,91.07
2018-06-04T00:41:18.605Z,90.91
2018-06-04T00:43:47.433Z,91.35
2018-06-04T00:46:16.669Z,91.31
2018-06-04T00:48:45.828Z,91.74
2018-06-04T00:51:14.992Z,91.73
2018-06-04T00:53:44.212Z,92.00
2018-06-04T00:56:20.898Z,91.92
2018-06-04T00:58:50.412Z,92.13
2018-06-04T01:01:20.042Z,91.88
2018-06-04T01:03:49.679Z,92.27
2018-06-04T01:06:18.777Z,92.09
2018-06-04T01:08:47.624Z,91.57
2018-06-04T01:11:17.133Z,92.30
2018-06-04T01:13:45.940Z,92.22
2018-06-04T01:16:15.031Z,91.86
2018-06-04T01:18:44.659Z,92.48
2018-06-04T01:21:14.040Z,92.11
2018-06-04T01:23:43.154Z,91.89
2018-06-04T01:26:12.303Z,92.15
2018-06-04T01:28:41.515Z,92.53
2018-06-04T01:31:11.594Z,92.04
2018-06-04T01:33:40.820Z,92.55
2018-06-04T01:36:09.660Z,92.43
2018-06-04T01:38:38.478Z,92.52
2018-06-04T01:41:07.540Z,92.25
2018-06-04T01:43:36.859Z,92.31
2018-06-04T01:46:06.303Z,92.23
2018-06-04T01:48:35.694Z,92.41
2018-06-04T01:51:05.149Z,92.59
2018-06-04T01:53:34.024Z,92.67
2018-06-04T01:56:03.653Z,92.81
2018-06-04T01:58:32.979Z,93.25
2018-06-04T02:01:02.401Z,93.26
2018-06-04T02:03:31.771Z,93.54
2018-06-04T02:06:01.268Z,93.36
2018-06-04T02:08:30.412Z,92.93
2018-06-04T02:10:59.819Z,92.96
2018-06-04T02:13:29.585Z,93.43
2018-06-04T02:15:59.447Z,93.66
2018-06-04T02:18:28.259Z,92.96
2018-06-04T02:20:57.124Z,93.34
2018-06-04T02:23:26.030Z,92.89
2018-06-04T02:25:56.443Z,93.27
2018-06-04T02:28:25.428Z,93.27
2018-06-04T02:30:54.264Z,93.15
2018-06-04T02:33:23.370Z,93.10
2018-06-04T02:35:52.371Z,92.51
2018-06-04T02:38:21.228Z,92.78
2018-06-04T02:40:50.625Z,92.68
2018-06-04T02:43:19.871Z,92.62
2018-06-04T02:45:48.895Z,92.25
2018-06-04T02:48:17.718Z,91.93
2018-06-04T02:50:47.389Z,92.07
2018-06-04T02:53:16.492Z,91.95
2018-06-04T02:55:45.326Z,91.74
2018-06-04T02:58:14.537Z,92.25
2018-06-04T03:00:43.709Z,91.59
2018-06-04T03:03:12.873Z,92.24
2018-06-04T03:05:42.469Z,92.32
2018-06-04T03:08:11.339Z,92.12
2018-06-04T03:10:40.469Z,92.53
2018-06-04T03:13:09.888Z,92.22
2018-06-04T03:15:38.760Z,93.00
2018-06-04T03:18:07.607Z,92.36
2018-06-04T03:20:36.515Z,92.52
2018-06-04T03:23:05.632Z,92.72
2018-06-04T03:25:34.828Z,92.76
2018-06-04T03:28:03.719Z,92.64
2018-06-04T03:30:32.581Z,92.46
2018-06-04T03:35:56.517Z,92.37
2018-06-04T03:38:25.922Z,92.04
2018-06-04T03:40:55.737Z,92.14
2018-06-04T03:43:24.610Z,92.79
2018-06-04T03:45:54.406Z,92.99
2018-06-04T03:48:23.374Z,92.78
2018-06-04T03:50:52.539Z,92.57
2018-06-04T03:53:21.932Z,92.63
2018-06-04T03:55:51.272Z,92.93
2018-06-04T03:58:21.123Z,92.55
2018-06-04T04:00:50.762Z,92.35
2018-06-04T04:03:20.096Z,92.59
2018-06-04T04:05:49.119Z,92.80
2018-06-04T04:08:18.410Z,92.70
2018-06-04T04:10:47.729Z,92.69
2018-06-04T04:13:17.119Z,92.59
2018-06-04T04:15:46.001Z,92.46
2018-06-04T04:18:14.853Z,92.35
2018-06-04T04:20:44.358Z,92.17
2018-06-04T04:23:13.436Z,92.66
2018-06-04T04:25:42.751Z,92.55
2018-06-04T04:28:11.958Z,91.68
2018-06-04T04:30:41.088Z,91.84
2018-06-04T04:33:10.817Z,91.97
2018-06-04T04:35:40.080Z,91.52
2018-06-04T04:38:09.043Z,91.04
2018-06-04T04:40:38.003Z,91.09
2018-06-04T04:43:07.150Z,91.51
2018-06-04T04:45:36.317Z,91.56
2018-06-04T04:48:05.279Z,91.93
2018-06-04T04:50:34.868Z,91.83
2018-06-04T04:53:04.535Z,91.81
2018-06-04T04:55:33.378Z,91.65
2018-06-04T04:58:02.787Z,90.91
2018-06-04T05:00:32.260Z,90.92
2018-06-04T05:03:03.124Z,91.28
2018-06-04T05:05:32.819Z,91.04
2018-06-04T05:08:01.678Z,90.75
2018-06-04T05:10:31.170Z,90.94
2018-06-04T05:13:00.012Z,90.69
2018-06-04T05:15:29.431Z,91.03
2018-06-04T05:17:58.618Z,90.61
2018-06-04T05:20:27.796Z,91.16
2018-06-04T05:22:57.120Z,90.91
2018-06-04T05:25:26.430Z,90.89
2018-06-04T05:27:55.584Z,91.07
2018-06-04T05:30:24.788Z,91.21
2018-06-04T05:32:53.984Z,90.49
2018-06-04T05:35:23.565Z,90.66
2018-06-04T05:37:52.988Z,90.11
2018-06-04T05:40:22.557Z,90.45
2018-06-04T05:48:44.244Z,89.80
2018-06-04T05:51:13.671Z,89.80
2018-06-04T05:53:42.842Z,90.05
2018-06-04T05:56:12.089Z,89.88
2018-06-04T05:58:41.128Z,89.72
2018-06-04T06:01:09.971Z,89.09
2018-06-04T06:03:39.599Z,89.53
2018-06-04T06:06:08.794Z,89.76
2018-06-04T06:08:38.475Z,89.46
2018-06-04T06:11:07.383Z,89.17
2018-06-04T06:13:36.201Z,89.33
2018-06-04T06:16:05.383Z,89.13
2018-06-04T06:18:34.259Z,88.95
2018-06-04T06:21:03.745Z,88.89
2018-06-04T06:23:32.919Z,88.16
2018-06-04T06:26:02.112Z,88.56
2018-06-04T06:28:31.213Z,88.22
2018-06-04T06:31:00.050Z,88.34
2018-06-04T06:33:29.164Z,88.07
2018-06-04T06:35:58.617Z,88.01
2018-06-04T06:38:27.972Z,87.86
2018-06-04T06:40:56.800Z,87.96
2018-06-04T06:43:25.729Z,87.88
2018-06-04T06:45:54.706Z,87.22
2018-06-04T06:48:23.545Z,86.72
2018-06-04T06:50:53.095Z,86.71
2018-06-04T06:53:22.531Z,86.15
2018-06-04T06:55:51.940Z,85.82
2018-06-04T06:58:21.220Z,86.33
2018-06-04T07:00:50.064Z,85.40
2018-06-04T07:03:19.166Z,84.90
2018-06-04T07:05:48.425Z,85.11
2018-06-04T07:08:17.267Z,85.85
2018-06-04T07:10:46.753Z,85.40
2018-06-04T07:13:16.183Z,85.56
2018-06-04T07:15:45.804Z,84.65
2018-06-04T07:18:14.647Z,84.47
2018-06-04T07:20:43.473Z,83.65
2018-06-04T07:23:12.340Z,82.98
2018-06-04T07:25:41.771Z,83.10
2018-06-04T07:28:10.626Z,82.49
2018-06-04T07:30:40.022Z,82.43
2018-06-04T07:33:08.865Z,82.97
2018-06-04T07:35:37.699Z,82.26
2018-06-04T07:38:07.015Z,81.83
2018-06-04T07:40:36.458Z,82.40
2018-06-04T07:43:05.701Z,82.77
2018-06-04T07:45:34.844Z,82.44
2018-06-04T07:48:03.780Z,82.03
2018-06-04T07:50:32.599Z,81.92
2018-06-04T07:53:01.731Z,81.18
2018-06-04T07:55:30.833Z,79.99
2018-06-04T07:57:59.871Z,80.27
2018-06-04T08:00:29.058Z,80.24
2018-06-04T08:02:58.142Z,79.65
2018-06-04T08:05:27.643Z,79.04
2018-06-04T08:07:56.944Z,78.58
2018-06-04T08:10:26.003Z,79.07
2018-06-04T08:12:55.126Z,78.47
2018-06-04T08:15:24.435Z,78.75
2018-06-04T08:17:53.796Z,78.18
2018-06-04T08:20:22.897Z,77.55
2018-06-04T08:23:03.738Z,77.95
2018-06-04T08:25:32.560Z,78.85
2018-06-04T08:28:02.287Z,78.31
2018-06-04T08:30:31.157Z,77.63
2018-06-04T08:33:00.261Z,76.29
2018-06-04T08:35:29.080Z,76.24
2018-06-04T08:37:58.953Z,76.89
2018-06-04T08:40:28.065Z,75.93
2018-06-04T08:42:57.176Z,76.77
2018-06-04T08:45:26.342Z,76.80
2018-06-04T08:47:55.735Z,76.26
2018-06-04T08:50:25.108Z,76.47
2018-06-04T08:52:54.452Z,75.60
2018-06-04T08:55:23.469Z,74.75
2018-06-04T08:57:52.552Z,76.11
2018-06-04T09:00:21.434Z,75.46
2018-06-04T09:02:50.293Z,74.92
2018-06-04T09:05:19.424Z,74.69
2018-06-04T09:07:48.745Z,75.44
2018-06-04T09:10:17.809Z,75.56
2018-06-04T09:12:46.922Z,75.37
2018-06-04T09:15:15.769Z,73.49
2018-06-04T09:17:45.230Z,73.22
2018-06-04T09:20:14.157Z,74.40
2018-06-04T09:22:43.297Z,73.68
2018-06-04T09:25:12.433Z,73.65
2018-06-04T09:27:41.390Z,73.41
2018-06-04T09:30:10.515Z,73.35
2018-06-04T09:32:39.356Z,74.73
2018-06-04T09:35:08.837Z,74.84
2018-06-04T09:37:37.734Z,73.69
2018-06-04T09:40:07.212Z,72.21
2018-06-04T09:42:36.214Z,72.06
2018-06-04T09:45:05.016Z,72.55
2018-06-04T09:47:34.504Z,72.89
2018-06-04T09:50:03.265Z,72.89
2018-06-04T09:52:32.319Z,73.16
2018-06-04T09:55:01.640Z,72.55
2018-06-04T09:57:30.385Z,72.41
2018-06-04T09:59:59.200Z,70.77
2018-06-04T10:02:28.075Z,72.10
2018-06-04T10:04:57.405Z,70.98
2018-06-04T10:07:26.523Z,71.72
2018-06-04T10:09:55.405Z,70.22
2018-06-04T10:12:24.479Z,69.83
2018-06-04T10:14:53.267Z,69.68
2018-06-04T10:17:22.067Z,68.79
2018-06-04T10:19:51.441Z,69.55
2018-06-04T10:22:20.647Z,70.36
2018-06-04T10:24:49.441Z,70.47
2018-06-04T10:27:18.231Z,70.73
2018-06-04T10:29:47.354Z,71.43
2018-06-04T10:32:16.113Z,69.91
2018-06-04T10:34:44.964Z,70.93
2018-06-04T10:37:14.557Z,71.91
2018-06-04T10:39:43.411Z,70.64
2018-06-04T10:42:12.889Z,70.29
2018-06-04T10:44:42.028Z,70.53
2018-06-04T10:47:11.540Z,70.85
2018-06-04T10:49:40.547Z,70.80
2018-06-04T10:52:09.364Z,70.48
2018-06-04T10:54:38.622Z,70.54
2018-06-04T10:57:07.484Z,71.04
2018-06-04T10:59:36.694Z,70.58
2018-06-04T11:02:06.999Z,69.48
2018-06-04T11:04:36.156Z,70.12
2018-06-04T11:07:05.351Z,70.44
2018-06-04T11:09:35.112Z,71.58
2018-06-04T11:12:04.559Z,71.03
2018-06-04T11:14:33.688Z,70.50
2018-06-04T11:17:02.578Z,69.79
2018-06-04T11:19:31.394Z,70.00
2018-06-04T11:22:00.219Z,68.60
2018-06-04T11:24:29.121Z,67.96
2018-06-04T11:26:58.225Z,67.94
2018-06-04T11:29:27.297Z,68.16
2018-06-04T11:31:56.447Z,67.69
2018-06-04T11:34:25.599Z,68.46
2018-06-04T11:36:55.017Z,68.78
2018-06-04T11:39:23.866Z,68.40
2018-06-04T11:41:53.250Z,69.14
2018-06-04T11:44:22.406Z,67.40
2018-06-04T11:46:51.833Z,68.01
2018-06-04T11:49:20.673Z,67.98
2018-06-04T11:51:50.331Z,68.25
2018-06-04T11:54:19.793Z,68.38
2018-06-04T11:56:49.004Z,67.96
2018-06-04T11:59:18.611Z,67.99
2018-06-04T12:01:47.988Z,68.32
2018-06-04T12:04:16.815Z,69.13
2018-06-04T12:06:45.749Z,67.65
2018-06-04T12:09:14.575Z,67.07
2018-06-04T12:11:43.419Z,67.93
2018-06-04T12:14:12.900Z,67.68
2018-06-04T12:16:41.963Z,67.09
2018-06-04T12:19:11.444Z,67.29
2018-06-04T12:21:40.265Z,67.93
2018-06-04T12:24:09.661Z,69.11
2018-06-04T12:26:38.553Z,69.24
2018-06-04T12:29:07.950Z,67.73
2018-06-04T12:31:37.198Z,68.18
2018-06-04T12:34:06.011Z,67.35
2018-06-04T12:36:35.144Z,68.16
2018-06-04T12:39:06.909Z,68.62
2018-06-04T12:41:36.203Z,68.93
2018-06-04T12:44:05.286Z,69.22
2018-06-04T12:46:35.104Z,70.08
2018-06-04T12:49:04.206Z,70.12
2018-06-04T12:51:33.321Z,70.06
2018-06-04T12:54:02.295Z,71.73
2018-06-04T12:56:32.362Z,71.28
2018-06-04T12:59:01.788Z,70.79
2018-06-04T13:01:30.970Z,70.31
2018-06-04T13:04:00.127Z,70.56
2018-06-04T13:06:29.419Z,69.74
2018-06-04T13:08:58.266Z,70.39
2018-06-04T13:11:27.542Z,71.39
2018-06-04T13:13:56.999Z,70.80
2018-06-04T13:16:26.602Z,71.14
2018-06-04T13:18:55.700Z,70.85
2018-06-04T13:21:24.761Z,70.80
2018-06-04T13:23:53.968Z,70.80
2018-06-04T13:26:22.831Z,70.93
2018-06-04T13:28:52.604Z,70.86
2018-06-04T13:31:22.005Z,71.06
2018-06-04T13:33:51.406Z,70.38
2018-06-04T13:36:20.252Z,70.27
2018-06-04T13:38:49.510Z,69.53
2018-06-04T13:41:18.381Z,70.11
2018-06-04T13:43:47.902Z,70.74
2018-06-04T13:46:17.387Z,71.51
2018-06-04T13:48:46.268Z,72.10
2018-06-04T13:51:15.598Z,72.18
2018-06-04T13:53:44.555Z,72.78
2018-06-04T13:56:13.784Z,71.91
2018-06-04T13:58:43.106Z,71.71
2018-06-04T14:01:12.300Z,72.12
2018-06-04T14:03:41.183Z,72.60
2018-06-04T14:06:10.117Z,72.79
2018-06-04T14:08:39.361Z,73.19
2018-06-04T14:11:08.483Z,73.63
2018-06-04T14:13:38.647Z,73.44
2018-06-04T14:16:08.086Z,72.59
2018-06-04T14:18:37.240Z,73.02
2018-06-04T14:21:06.319Z,72.92
2018-06-04T14:23:35.535Z,72.60
2018-06-04T14:26:04.815Z,72.28
2018-06-04T14:28:34.153Z,72.37
2018-06-04T14:31:03.556Z,72.57
2018-06-04T14:33:32.849Z,72.29
2018-06-04T14:36:02.125Z,72.95
2018-06-04T14:38:31.206Z,72.20
2018-06-04T14:41:00.797Z,72.94
2018-06-04T14:43:30.361Z,72.95
2018-06-04T14:45:59.564Z,72.50
2018-06-04T14:48:28.559Z,72.23
2018-06-04T14:50:58.128Z,72.91
2018-06-04T14:53:27.327Z,72.70
2018-06-04T14:55:56.759Z,72.46
2018-06-04T14:58:27.513Z,73.32
2018-06-04T15:00:56.888Z,73.88
2018-06-04T15:03:26.248Z,73.96
2018-06-04T15:05:55.666Z,74.48
2018-06-04T15:08:25.091Z,73.89
2018-06-04T15:10:54.490Z,74.44
2018-06-04T15:13:23.491Z,74.78
2018-06-04T15:15:52.815Z,74.52
2018-06-04T15:18:21.758Z,74.74
2018-06-04T15:20:51.146Z,74.85
2018-06-04T15:23:20.467Z,74.91
2018-06-04T15:25:49.642Z,75.48
2018-06-04T15:28:19.221Z,75.04
2018-06-04T15:30:48.852Z,76.23
2018-06-04T15:33:18.124Z,75.68
2018-06-04T15:35:47.058Z,76.19
2018-06-04T15:38:16.688Z,75.95
2018-06-04T15:40:45.756Z,76.25
2018-06-04T15:43:15.269Z,76.39
2018-06-04T15:45:44.972Z,75.54
2018-06-04T15:48:14.056Z,76.11
2018-06-04T15:50:43.086Z,76.50
2018-06-04T15:53:12.175Z,76.51
2018-06-04T15:55:41.217Z,75.86
2018-06-04T15:58:10.376Z,75.99
2018-06-04T16:00:39.960Z,76.04
2018-06-04T16:03:09.549Z,75.61
2018-06-04T16:05:39.301Z,75.47
2018-06-04T16:08:08.389Z,75.56
2018-06-04T16:10:37.574Z,75.15
2018-06-04T16:13:06.819Z,74.56
2018-06-04T16:15:36.015Z,74.92
2018-06-04T16:18:04.997Z,74.77
2018-06-04T16:20:35.984Z,74.99
2018-06-04T16:23:07.064Z,75.06
2018-06-04T16:25:36.376Z,75.13
2018-06-04T16:28:05.873Z,74.91
2018-06-04T16:30:35.588Z,75.54
2018-06-04T16:33:05.284Z,75.26
2018-06-04T16:35:35.094Z,75.36
2018-06-04T16:38:04.797Z,75.43
2018-06-04T16:40:34.484Z,75.90
2018-06-04T16:43:03.817Z,75.47
2018-06-04T16:45:33.209Z,75.70
2018-06-04T16:48:02.522Z,75.63
2018-06-04T16:50:32.121Z,75.90
2018-06-04T16:53:01.468Z,76.30
2018-06-04T16:55:30.721Z,76.24
2018-06-04T16:57:59.758Z,77.10
2018-06-04T17:00:29.055Z,76.33
2018-06-04T17:02:58.921Z,76.47
2018-06-04T17:05:28.398Z,76.81
2018-06-04T17:07:57.704Z,77.43
2018-06-04T17:10:27.457Z,77.83
2018-06-04T17:12:56.847Z,78.19
2018-06-04T17:15:26.564Z,78.60
2018-06-04T17:17:55.821Z,78.26
2018-06-04T17:20:25.587Z,78.29
2018-06-04T17:22:54.783Z,77.75
2018-06-04T17:25:24.320Z,78.59
2018-06-04T17:27:53.352Z,78.34
2018-06-04T17:30:22.442Z,79.18
2018-06-04T17:32:51.640Z,78.92
2018-06-04T17:35:20.972Z,78.91
2018-06-04T17:37:50.079Z,79.37
2018-06-04T17:40:19.564Z,79.13
2018-06-04T17:42:52.912Z,79.53
2018-06-04T17:45:21.799Z,79.20
2018-06-04T17:47:50.627Z,79.00
2018-06-04T17:50:19.794Z,79.18
2018-06-04T17:52:49.118Z,79.62
2018-06-04T17:55:17.986Z,79.50
2018-06-04T17:57:47.072Z,79.50
2018-06-04T18:00:16.263Z,79.72
2018-06-04T18:02:45.159Z,80.06
2018-06-04T18:05:14.065Z,80.15
2018-06-04T18:07:43.109Z,80.16
2018-06-04T18:10:12.388Z,80.61
2018-06-04T18:12:41.257Z,81.20
2018-06-04T18:15:10.694Z,81.65
2018-06-04T18:17:40.075Z,81.54
2018-06-04T18:20:09.146Z,82.18
2018-06-04T18:22:38.332Z,81.90
2018-06-04T18:25:07.443Z,81.89
2018-06-04T18:27:36.766Z,81.52
2018-06-04T18:30:05.701Z,82.32
2018-06-04T18:32:35.495Z,81.49
2018-06-04T18:35:05.194Z,81.73
2018-06-04T18:37:34.431Z,80.95
2018-06-04T18:40:04.343Z,81.41
2018-06-04T18:42:33.884Z,81.87
2018-06-04T18:45:03.376Z,81.54
2018-06-04T18:47:32.380Z,81.61
2018-06-04T18:50:01.325Z,82.03
2018-06-04T18:52:30.795Z,82.00
2018-06-04T18:55:00.025Z,81.48
2018-06-04T18:57:29.440Z,80.90
2018-06-04T18:59:59.254Z,81.94
2018-06-04T19:02:29.363Z,81.71
2018-06-04T19:04:59.083Z,82.02
2018-06-04T19:07:28.305Z,81.81
2018-06-04T19:09:58.102Z,81.85
2018-06-04T19:12:27.366Z,82.36
2018-06-04T19:14:57.037Z,82.15
2018-06-04T19:17:26.877Z,82.26
2018-06-04T19:19:55.986Z,82.28
2018-06-04T19:22:25.416Z,83.04
2018-06-04T19:24:55.269Z,82.46
2018-06-04T19:27:24.240Z,82.32
2018-06-04T19:29:53.337Z,82.25
2018-06-04T19:32:22.717Z,82.23
2018-06-04T19:34:51.865Z,81.99
2018-06-04T19:37:20.817Z,82.50
2018-06-04T19:39:50.017Z,82.72
2018-06-04T19:42:19.520Z,81.85
2018-06-04T19:44:48.957Z,81.56
2018-06-04T19:47:18.144Z,82.01
2018-06-04T19:49:47.364Z,82.18
2018-06-04T19:52:16.257Z,82.37
2018-06-04T19:54:45.558Z,82.36
2018-06-04T19:57:15.155Z,82.27
2018-06-04T19:59:44.617Z,81.76
2018-06-04T20:02:13.968Z,81.69
2018-06-04T20:04:43.274Z,81.92
2018-06-04T20:07:12.614Z,81.78
2018-06-04T20:09:41.573Z,81.41
2018-06-04T20:12:11.442Z,81.47
2018-06-04T20:14:40.386Z,81.31
2018-06-04T20:17:09.878Z,81.21
2018-06-04T20:19:38.788Z,81.19
2018-06-04T20:22:08.993Z,80.97
2018-06-04T20:24:38.269Z,81.94
2018-06-04T20:27:07.398Z,81.41
2018-06-04T20:29:36.845Z,81.90
2018-06-04T20:32:06.182Z,82.29
2018-06-04T20:34:35.342Z,82.16
2018-06-04T20:37:04.839Z,82.49
2018-06-04T20:39:34.196Z,83.01
2018-06-04T20:42:03.640Z,82.54
2018-06-04T20:44:32.603Z,82.87
2018-06-04T20:47:01.741Z,82.14
2018-06-04T20:49:31.357Z,82.29
2018-06-04T20:52:00.642Z,82.21
2018-06-04T20:54:29.819Z,82.64
2018-06-04T20:57:00.432Z,82.32
2018-06-04T20:59:29.478Z,81.69
2018-06-04T21:01:58.437Z,80.84
2018-06-04T21:04:28.361Z,80.69
2018-06-04T21:06:57.678Z,80.33
2018-06-04T21:09:27.414Z,80.05
2018-06-04T21:11:58.257Z,80.09
2018-06-04T21:14:28.180Z,79.98
2018-06-04T21:16:58.437Z,80.21
2018-06-04T21:19:28.306Z,80.41
2018-06-04T21:21:58.575Z,80.09
2018-06-04T21:24:28.724Z,80.30
2018-06-04T21:26:58.025Z,80.02
2018-06-04T21:29:27.261Z,80.11
2018-06-04T21:31:57.240Z,80.03
2018-06-04T21:34:26.520Z,80.32
2018-06-04T21:36:56.737Z,80.51
2018-06-04T21:39:25.857Z,80.08
2018-06-04T21:41:55.023Z,80.32
2018-06-04T21:44:23.874Z,80.48
2018-06-04T21:46:53.961Z,80.08
2018-06-04T21:49:23.474Z,80.49
2018-06-04T21:51:52.640Z,80.45
2018-06-04T21:54:23.701Z,80.25
2018-06-04T21:56:52.858Z,79.99
2018-06-04T21:59:25.864Z,79.97
2018-06-04T22:01:55.298Z,79.79
2018-06-04T22:04:24.391Z,79.96
2018-06-04T22:06:55.840Z,80.37
2018-06-04T22:09:24.764Z,79.76
2018-06-04T22:11:53.892Z,80.36
2018-06-04T22:14:23.393Z,80.62
2018-06-04T22:16:52.372Z,80.49
2018-06-04T22:19:21.195Z,80.73
2018-06-04T22:21:50.376Z,80.66
2018-06-04T22:24:19.760Z,80.29
2018-06-04T22:26:49.008Z,80.76
2018-06-04T22:29:17.897Z,80.43
2018-06-04T22:31:46.769Z,80.38
2018-06-04T22:34:15.683Z,80.54
2018-06-04T22:36:44.500Z,80.73
2018-06-04T22:39:13.308Z,80.51
2018-06-04T22:41:42.388Z,80.69
2018-06-04T22:44:11.475Z,80.17
2018-06-04T22:46:40.429Z,80.37
2018-06-04T22:49:09.280Z,80.85
2018-06-04T22:51:38.136Z,80.53
2018-06-04T22:54:07.381Z,80.68
2018-06-04T22:56:36.578Z,81.15
2018-06-04T22:59:06.721Z,80.72
2018-06-04T23:01:35.844Z,80.65
2018-06-04T23:04:04.997Z,81.03
2018-06-04T23:06:34.076Z,80.76
2018-06-04T23:09:03.266Z,80.78
2018-06-04T23:11:32.700Z,80.85
2018-06-04T23:14:01.973Z,81.10
2018-06-04T23:16:31.094Z,81.12
2018-06-04T23:19:00.059Z,80.84
2018-06-04T23:21:29.645Z,81.43
2018-06-04T23:23:58.591Z,81.73
2018-06-04T23:26:27.911Z,81.77
2018-06-04T23:28:57.447Z,81.75
2018-06-04T23:31:26.683Z,81.89
2018-06-04T23:33:56.716Z,82.16
2018-06-04T23:36:25.641Z,82.28
2018-06-04T23:38:54.503Z,82.38
2018-06-04T23:41:23.433Z,82.82
2018-06-04T23:43:52.878Z,82.87
2018-06-04T23:46:22.514Z,83.17
2018-06-04T23:48:51.357Z,83.38
2018-06-04T23:51:20.338Z,83.33
2018-06-04T23:53:49.746Z,82.76
2018-06-04T23:56:18.643Z,82.33
2018-06-04T23:58:47.925Z,82.55
